Time;durP1;ratioP1;P1;durP2;ratioP2;P2;SDS_P1;SDS_P2;PMS_P1;PMS_P2;Temp;Humidity;BMP_temperature;BMP_pressure;BME280_temperature;BME280_humidity;BME280_pressure;Samples;Min_cycle;Max_cycle;Signal;HPM_P1;HPM_P2
2022/05/29 00:01:48;;;;;;;15.43;6.80;;;;;;;18.48;100.00;62778.84;5095706;28;20739;-75
2022/05/29 00:04:14;;;;;;;13.53;7.50;;;;;;;18.60;100.00;62789.22;5096317;28;20200;-74
2022/05/29 00:06:46;;;;;;;14.70;7.03;;;;;;;18.52;100.00;62783.72;5078368;28;20207;-75
2022/05/29 00:09:19;;;;;;;22.23;8.40;;;;;;;18.38;100.00;62770.63;5096609;28;20280;-74
2022/05/29 00:11:47;;;;;;;21.20;7.70;;;;;;;18.66;100.00;62795.16;5096910;28;20211;-74
2022/05/29 00:14:14;;;;;;;17.60;8.27;;;;;;;18.35;100.00;62762.22;5095585;28;20276;-76
2022/05/29 00:16:41;;;;;;;17.40;7.90;;;;;;;18.62;100.00;62791.38;5097120;28;20299;-75
2022/05/29 00:19:09;;;;;;;15.87;7.63;;;;;;;18.54;100.00;62785.34;5097868;28;20282;-75
2022/05/29 00:21:38;;;;;;;22.30;8.30;;;;;;;18.51;100.00;62782.63;5097439;28;20211;-75
2022/05/29 00:24:08;;;;;;;18.30;8.17;;;;;;;18.57;100.00;62786.00;5097872;28;20265;-77
2022/05/29 00:26:37;;;;;;;16.13;7.20;;;;;;;18.85;100.00;62815.69;5096793;28;20235;-75
2022/05/29 00:29:07;;;;;;;20.00;9.73;;;;;;;18.48;100.00;62776.28;5096613;28;20675;-75
2022/05/29 00:31:34;;;;;;;17.43;8.30;;;;;;;18.17;100.00;62740.22;5095897;28;20203;-76
2022/05/29 00:34:03;;;;;;;24.03;8.97;;;;;;;18.61;100.00;62787.75;5094903;28;20272;-75
2022/05/29 00:36:34;;;;;;;20.20;8.57;;;;;;;18.78;100.00;62810.69;5095385;28;20231;-78
2022/05/29 00:39:01;;;;;;;18.67;8.60;;;;;;;17.80;100.00;62710.59;5094391;28;20264;-76
2022/05/29 00:41:31;;;;;;;19.67;9.17;;;;;;;18.68;100.00;62800.44;5092986;28;20555;-76
2022/05/29 00:44:12;;;;;;;15.37;7.60;;;;;;;18.50;100.00;62778.97;5093591;28;20241;-77
2022/05/29 00:46:40;;;;;;;22.80;8.90;;;;;;;18.37;100.00;62767.50;5092030;28;20227;-76
2022/05/29 00:49:07;;;;;;;17.17;8.40;;;;;;;18.29;100.00;62758.84;5093409;28;20200;-75
2022/05/29 00:51:36;;;;;;;22.47;9.03;;;;;;;18.24;100.00;62747.78;5093417;28;20204;-75
2022/05/29 00:54:05;;;;;;;18.13;8.63;;;;;;;18.13;100.00;62741.06;5093233;28;20199;-74
2022/05/29 00:56:33;;;;;;;21.57;9.87;;;;;;;18.10;100.00;62735.25;5093379;28;20258;-74
2022/05/29 00:59:01;;;;;;;18.13;8.53;;;;;;;17.61;100.00;62688.59;5079381;28;20200;-76
2022/05/29 01:01:31;;;;;;;20.30;8.07;;;;;;;17.69;100.00;62697.25;5093548;28;20367;-75
2022/05/29 01:03:59;;;;;;;18.07;9.10;;;;;;;17.90;100.00;62714.19;5092957;28;20230;-74
2022/05/29 01:06:28;;;;;;;21.80;10.17;;;;;;;17.78;100.00;62703.28;5092817;28;20212;-76
2022/05/29 01:08:58;;;;;;;20.27;9.87;;;;;;;18.14;100.00;62739.56;5093187;28;20310;-75
2022/05/29 01:11:32;;;;;;;23.33;11.00;;;;;;;18.30;100.00;62754.25;5092973;28;20238;-76
2022/05/29 01:14:14;;;;;;;21.17;11.97;;;;;;;18.30;100.00;62756.81;5093437;28;20202;-75
2022/05/29 01:16:51;;;;;;;18.33;11.97;;;;;;;18.37;100.00;62770.06;5092979;28;20269;-77
2022/05/29 01:19:54;;;;;;;22.57;12.93;;;;;;;18.43;100.00;62770.88;5092996;28;20256;-74
2022/05/29 01:23:10;;;;;;;29.83;13.47;;;;;;;18.44;100.00;62771.97;5067695;28;20200;-74
2022/05/29 01:26:09;;;;;;;17.70;10.40;;;;;;;17.71;100.00;62694.25;5063257;28;20211;-74
2022/05/29 01:28:55;;;;;;;18.60;9.27;;;;;;;17.63;100.00;62685.63;5092426;28;20200;-77
2022/05/29 01:31:40;;;;;;;18.57;8.90;;;;;;;17.57;100.00;62679.13;5091328;28;20264;-76
2022/05/29 01:34:27;;;;;;;16.80;8.60;;;;;;;17.74;100.00;62696.94;5092768;28;20227;-74
2022/05/29 01:37:04;;;;;;;16.67;9.53;;;;;;;17.03;100.00;62620.34;5092638;28;20227;-76
2022/05/29 01:39:35;;;;;;;17.57;7.63;;;;;;;17.44;100.00;62665.09;5092464;28;20214;-77
2022/05/29 01:42:08;;;;;;;15.80;7.67;;;;;;;17.64;100.00;62686.69;5092847;28;20207;-75
2022/05/29 01:44:41;;;;;;;8.80;6.53;;;;;;;17.48;100.00;62672.00;5092558;28;20384;-78
2022/05/29 01:47:14;;;;;;;16.23;6.33;;;;;;;17.59;100.00;62680.75;5091380;28;20208;-76
2022/05/29 01:49:49;;;;;;;15.37;6.50;;;;;;;17.37;100.00;62657.00;5091758;28;20231;-76
2022/05/29 01:52:20;;;;;;;15.07;6.80;;;;;;;17.34;100.00;62656.91;5092834;28;20272;-74
2022/05/29 01:54:53;;;;;;;15.23;8.10;;;;;;;17.33;100.00;62652.69;5092362;28;20199;-77
2022/05/29 01:57:25;;;;;;;19.17;9.27;;;;;;;17.27;100.00;62646.75;5092147;28;20235;-75
2022/05/29 01:59:58;;;;;;;18.10;9.20;;;;;;;16.86;100.00;62602.56;5092694;28;20211;-76
2022/05/29 02:02:29;;;;;;;17.17;8.80;;;;;;;17.81;100.00;62701.38;5092426;28;20203;-74
2022/05/29 02:05:02;;;;;;;24.83;10.30;;;;;;;17.36;100.00;62663.66;5092187;28;20235;-76
2022/05/29 02:07:49;;;;;;;32.77;18.57;;;;;;;17.57;100.00;62674.00;5092190;28;20199;-76
2022/05/29 02:10:26;;;;;;;31.80;16.30;;;;;;;17.46;100.00;62669.84;5092066;28;20268;-75
2022/05/29 02:12:59;;;;;;;19.50;10.13;;;;;;;17.43;100.00;62664.03;5091443;28;20279;-77
2022/05/29 02:15:37;;;;;;;23.53;8.53;;;;;;;17.32;100.00;62652.16;5092291;28;20199;-76
2022/05/29 02:18:11;;;;;;;16.60;7.57;;;;;;;17.13;100.00;62629.09;5091436;28;20230;-77
2022/05/29 02:20:46;;;;;;;13.83;7.93;;;;;;;17.38;100.00;62658.09;5092102;28;20207;-74
2022/05/29 02:23:20;;;;;;;13.93;7.60;;;;;;;17.42;100.00;62665.53;5091891;28;20209;-75
2022/05/29 02:25:49;;;;;;;13.67;7.17;;;;;;;17.18;100.00;62637.06;5091555;28;20699;-74
2022/05/29 02:28:25;;;;;;;14.77;7.10;;;;;;;17.28;100.00;62650.44;5091367;28;20199;-74
2022/05/29 02:31:02;;;;;;;15.57;7.30;;;;;;;17.63;100.00;62685.63;5091404;28;20339;-77
2022/05/29 02:33:38;;;;;;;16.53;7.20;;;;;;;17.22;100.00;62640.84;5068422;28;20281;-78
2022/05/29 02:39:06;;;;;;;11.97;6.97;;;;;;;17.54;100.00;62675.91;5090260;28;20237;-76
2022/05/29 02:41:53;;;;;;;19.23;7.60;;;;;;;17.66;100.00;62685.75;5091063;28;20301;-76
2022/05/29 02:44:32;;;;;;;16.53;7.50;;;;;;;17.68;100.00;62690.47;5091526;28;20195;-77
2022/05/29 02:47:24;;;;;;;14.00;7.83;;;;;;;17.71;100.00;62693.69;5082926;28;20287;-75
2022/05/29 02:50:05;;;;;;;13.47;6.97;;;;;;;17.48;100.00;62666.84;5093467;28;20192;-81
2022/05/29 02:52:53;;;;;;;14.30;7.37;;;;;;;17.65;100.00;62682.63;5076702;28;20215;-75
2022/05/29 02:55:21;;;;;;;14.10;7.13;;;;;;;17.61;100.00;62683.44;5082396;28;20234;-73
2022/05/29 02:57:52;;;;;;;24.13;7.60;;;;;;;17.72;100.00;62692.22;5085922;28;20237;-73
2022/05/29 03:00:19;;;;;;;14.60;7.20;;;;;;;17.79;100.00;62701.81;5090615;28;20286;-75
2022/05/29 03:03:02;;;;;;;13.67;7.43;;;;;;;17.62;100.00;62684.00;5088202;28;20218;-74
2022/05/29 03:05:34;;;;;;;24.53;9.27;;;;;;;17.68;100.00;62690.47;5090144;28;20204;-74
2022/05/29 03:08:23;;;;;;;17.90;8.63;;;;;;;17.70;100.00;62690.59;5070583;28;20199;-75
2022/05/29 03:10:57;;;;;;;19.00;8.30;;;;;;;17.70;100.00;62693.16;5089159;28;20208;-73
2022/05/29 03:13:34;;;;;;;17.50;7.93;;;;;;;17.60;100.00;62682.38;5088621;28;20198;-73
2022/05/29 03:16:06;;;;;;;11.13;7.43;;;;;;;17.40;100.00;62660.25;5089697;28;20248;-74
2022/05/29 03:18:43;;;;;;;14.03;7.37;;;;;;;17.70;100.00;62690.06;5089868;28;20196;-74
2022/05/29 03:21:15;;;;;;;17.77;7.90;;;;;;;17.76;100.00;62693.41;5091282;28;20198;-75
2022/05/29 03:23:52;;;;;;;16.40;7.27;;;;;;;17.45;100.00;62666.19;5090840;28;20474;-74
2022/05/29 03:26:27;;;;;;;20.50;8.10;;;;;;;17.41;100.00;62656.72;5093678;28;20235;-73
2022/05/29 03:29:04;;;;;;;14.80;7.07;;;;;;;16.91;100.00;62607.94;5095303;28;20267;-75
2022/05/29 03:31:32;;;;;;;11.70;6.70;;;;;;;17.21;100.00;62640.28;5095454;28;20678;-72
2022/05/29 03:34:01;;;;;;;13.17;6.97;;;;;;;17.37;100.00;62652.41;5095478;28;20265;-74
2022/05/29 03:36:28;;;;;;;11.60;6.63;;;;;;;17.26;100.00;62643.13;5094908;28;20235;-74
2022/05/29 03:38:57;;;;;;;18.70;7.17;;;;;;;17.27;100.00;62649.34;5099680;28;20647;-73
2022/05/29 03:41:31;;;;;;;16.37;6.93;;;;;;;16.92;100.00;62609.03;5095003;28;20203;-74
2022/05/29 03:43:58;;;;;;;13.87;7.30;;;;;;;16.88;100.00;62604.72;5095677;28;20206;-73
2022/05/29 03:46:26;;;;;;;15.43;6.90;;;;;;;17.08;100.00;62628.88;5093685;28;20196;-72
2022/05/29 03:48:53;;;;;;;16.03;6.97;;;;;;;17.06;100.00;62626.72;5081477;28;20199;-74
2022/05/29 03:51:22;;;;;;;10.93;7.07;;;;;;;17.17;100.00;62638.56;5094615;28;20204;-74
2022/05/29 03:53:49;;;;;;;9.07;6.47;;;;;;;16.98;100.00;62612.41;5094379;28;20324;-74
2022/05/29 03:56:16;;;;;;;12.13;6.53;;;;;;;16.98;100.00;62615.50;5094402;28;20200;-73
2022/05/29 03:58:43;;;;;;;18.97;7.27;;;;;;;16.94;100.00;62611.19;5093972;28;20203;-73
2022/05/29 04:01:10;;;;;;;17.80;8.07;;;;;;;17.05;100.00;62623.03;5094284;28;20284;-74
2022/05/29 04:03:39;;;;;;;14.90;6.73;;;;;;;17.04;100.00;62619.41;5076156;28;20207;-75
2022/05/29 04:06:05;;;;;;;14.60;6.83;;;;;;;17.11;100.00;62626.94;5094292;28;20627;-74
2022/05/29 04:14:06;;;;;;;10.07;6.20;;;;;;;16.91;100.00;62613.09;5094345;28;20226;-74
2022/05/29 04:16:33;;;;;;;13.27;5.70;;;;;;;16.80;100.00;62601.78;5094108;28;20211;-73
2022/05/29 04:18:59;;;;;;;12.33;6.17;;;;;;;17.05;100.00;62623.03;5093732;28;20199;-74
2022/05/29 04:21:28;;;;;;;14.83;6.30;;;;;;;17.09;100.00;62629.94;5094058;28;20269;-73
2022/05/29 04:23:59;;;;;;;13.13;6.97;;;;;;;17.27;100.00;62646.75;5093949;28;20204;-74
2022/05/29 04:26:26;;;;;;;12.10;5.70;;;;;;;17.53;100.00;62674.81;5093767;28;20265;-73
2022/05/29 04:28:55;;;;;;;17.80;6.67;;;;;;;17.70;100.00;62693.16;5093869;28;20204;-74
2022/05/29 04:31:22;;;;;;;11.47;5.60;;;;;;;17.87;100.00;62710.44;5093566;28;20203;-74
2022/05/29 04:33:48;;;;;;;10.10;6.03;;;;;;;17.95;100.00;62721.66;5093692;28;20282;-76
2022/05/29 04:36:15;;;;;;;13.40;6.30;;;;;;;17.95;100.00;62719.59;5093134;28;20290;-75
2022/05/29 04:38:43;;;;;;;13.83;5.87;;;;;;;18.21;100.00;62747.13;5093496;28;20231;-74
2022/05/29 04:41:13;;;;;;;9.80;5.10;;;;;;;18.31;100.00;62757.91;5093480;28;20198;-74
2022/05/29 04:43:40;;;;;;;12.50;5.60;;;;;;;18.39;100.00;62761.38;5093691;28;20208;-74
2022/05/29 04:46:07;;;;;;;9.87;4.87;;;;;;;18.61;100.00;62790.31;5093314;28;20619;-74
2022/05/29 04:48:34;;;;;;;9.20;5.37;;;;;;;18.68;100.00;62795.28;5091984;28;20727;-74
2022/05/29 04:51:02;;;;;;;10.70;5.30;;;;;;;18.84;100.00;62812.56;5093624;28;20620;-74
2022/05/29 04:53:32;;;;;;;11.30;5.80;;;;;;;18.95;100.00;62827.03;5093238;28;20204;-75
2022/05/29 04:56:00;;;;;;;9.17;5.73;;;;;;;18.99;100.00;62828.78;5093338;28;20192;-74
2022/05/29 04:58:30;;;;;;;8.13;4.90;;;;;;;19.04;100.00;62834.16;5092718;28;20648;-74
2022/05/29 05:00:58;;;;;;;12.33;4.47;;;;;;;18.99;100.00;62831.34;5093791;28;20261;-73
2022/05/29 05:03:24;;;;;;;6.63;3.83;;;;;;;19.02;100.00;62834.59;5093196;28;20235;-74
2022/05/29 05:05:51;;;;;;;11.63;4.40;;;;;;;19.25;100.00;62854.28;5093194;28;20192;-73
2022/05/29 05:08:20;;;;;;;12.83;5.03;;;;;;;19.43;100.00;62878.34;5093081;28;20229;-73
2022/05/29 05:10:46;;;;;;;11.83;4.10;;;;;;;19.33;100.00;62868.09;5092888;28;20222;-73
2022/05/29 05:13:13;;;;;;;7.13;3.53;;;;;;;19.45;100.00;62879.97;5092683;28;20272;-74
2022/05/29 05:15:41;;;;;;;11.57;3.90;;;;;;;19.60;100.00;62896.19;5092953;28;20253;-73
2022/05/29 05:18:09;;;;;;;14.33;3.53;;;;;;;19.46;100.00;62881.06;5092983;28;20227;-73
2022/05/29 05:20:38;;;;;;;9.47;4.03;;;;;;;19.53;100.00;62891.75;5092727;28;20260;-72
2022/05/29 05:23:05;;;;;;;8.23;3.70;;;;;;;19.38;100.00;62873.50;5092980;28;20637;-74
2022/05/29 05:25:32;;;;;;;14.23;4.23;;;;;;;19.30;100.00;62864.28;5092841;28;20206;-74
2022/05/29 05:27:59;;;;;;;12.73;4.30;;;;;;;19.38;100.00;62873.50;5092619;28;20227;-73
2022/05/29 05:30:26;;;;;;;9.60;4.07;;;;;;;19.51;100.00;62887.00;5093028;28;20732;-73
2022/05/29 05:32:54;;;;;;;6.40;3.87;;;;;;;19.61;100.00;62897.25;5093086;28;20196;-73
2022/05/29 05:35:22;;;;;;;12.00;4.27;;;;;;;19.04;100.00;62836.75;5092417;28;20203;-74
2022/05/29 05:37:50;;;;;;;10.90;3.90;;;;;;;20.09;100.00;62946.56;5092115;28;20293;-75
2022/05/29 05:40:17;;;;;;;10.63;3.70;;;;;;;19.98;100.00;62937.25;5092333;28;20626;-73
2022/05/29 05:42:45;;;;;;;13.80;4.03;;;;;;;19.95;100.00;62937.13;5094157;28;20225;-74
2022/05/29 05:45:14;;;;;;;12.50;4.23;;;;;;;20.53;100.00;62996.75;5093107;28;20331;-73
2022/05/29 05:47:44;;;;;;;9.77;3.27;;;;;;;18.72;100.00;62801.63;5090003;28;20290;-74
2022/05/29 05:50:16;;;;;;;10.60;4.23;;;;;;;20.05;100.00;62944.81;5092388;28;20674;-75
2022/05/29 05:52:44;;;;;;;10.17;3.80;;;;;;;20.06;100.00;62943.31;5091506;28;20203;-73
2022/05/29 05:55:13;;;;;;;8.00;3.87;;;;;;;20.07;100.00;62946.97;5092248;28;20195;-73
2022/05/29 05:57:40;;;;;;;9.87;3.87;;;;;;;20.22;100.00;62960.66;5092199;28;20219;-75
2022/05/29 06:00:12;;;;;;;7.33;3.60;;;;;;;20.58;100.00;62999.56;5092260;28;20199;-74
2022/05/29 06:02:40;;;;;;;9.37;4.57;;;;;;;20.08;100.00;62948.59;5091771;28;20732;-73
2022/05/29 06:05:11;;;;;;;7.03;3.57;;;;;;;20.37;100.00;62979.44;5073707;28;20214;-74
2022/05/29 06:07:40;;;;;;;11.70;3.70;;;;;;;20.55;100.00;62998.91;5091799;28;20203;-73
2022/05/29 06:10:08;;;;;;;10.00;4.07;;;;;;;20.64;100.00;63008.66;5091776;28;20208;-73
2022/05/29 06:12:36;;;;;;;19.73;4.23;;;;;;;20.82;100.00;63028.13;5091744;28;20224;-73
2022/05/29 06:15:04;;;;;;;14.70;4.97;;;;;;;20.62;100.00;63006.47;5091786;28;20349;-73
2022/05/29 06:17:31;;;;;;;7.00;3.60;;;;;;;21.16;100.00;63061.25;5091624;28;20771;-75
2022/05/29 06:19:59;;;;;;;8.80;3.43;;;;;;;21.46;100.00;63096.31;5091748;28;20290;-74
2022/05/29 06:22:26;;;;;;;13.03;3.47;;;;;;;21.26;100.00;63075.22;5091810;28;20210;-74
2022/05/29 06:24:54;;;;;;;13.27;3.50;;;;;;;20.91;100.00;63037.84;5091826;28;20191;-75
2022/05/29 06:27:21;;;;;;;10.90;3.60;;;;;;;21.74;100.00;63127.16;5091040;28;20300;-75
2022/05/29 06:29:48;;;;;;;8.97;3.63;;;;;;;21.93;100.00;63144.63;5091605;28;20573;-74
2022/05/29 06:32:15;;;;;;;11.50;3.93;;;;;;;22.06;100.00;63160.75;5091433;28;20207;-72
2022/05/29 06:34:43;;;;;;;6.73;3.53;;;;;;;21.46;100.00;63104.09;5091649;28;20261;-73
2022/05/29 06:37:10;;;;;;;7.70;3.27;;;;;;;21.73;100.00;63125.53;5091384;28;20314;-73
2022/05/29 06:39:38;;;;;;;12.77;3.77;;;;;;;22.10;100.00;63162.47;5073242;28;20199;-75
2022/05/29 06:42:07;;;;;;;13.90;3.10;;;;;;;22.08;100.00;63163.47;5091509;28;20204;-75
2022/05/29 06:44:36;;;;;;;6.63;3.03;;;;;;;22.23;100.00;63179.72;5092301;28;20231;-74
2022/05/29 06:47:07;;;;;;;10.57;3.70;;;;;;;22.80;100.00;63237.81;5090524;28;20200;-73
2022/05/29 06:49:34;;;;;;;7.50;2.90;;;;;;;22.32;100.00;63189.44;5090712;28;20203;-73
2022/05/29 06:52:01;;;;;;;11.73;2.97;;;;;;;22.89;100.00;63250.16;5091026;28;20195;-73
2022/05/29 06:54:28;;;;;;;10.10;3.33;;;;;;;22.86;100.00;63241.72;5091090;28;20257;-73
2022/05/29 06:56:56;;;;;;;8.23;3.03;;;;;;;22.85;100.00;63240.63;5090849;28;20261;-74
2022/05/29 06:59:25;;;;;;;8.30;3.17;;;;;;;23.17;100.00;63281.06;5092347;28;20227;-75
2022/05/29 07:07:24;;;;;;;10.93;4.10;;;;;;;23.63;100.00;63324.66;5095420;28;20209;-74
2022/05/29 07:09:51;;;;;;;16.20;3.27;;;;;;;23.17;100.00;63280.50;5095123;28;20200;-74
2022/05/29 07:12:23;;;;;;;15.47;3.77;;;;;;;23.20;100.00;63284.28;5095151;28;20294;-73
2022/05/29 07:14:54;;;;;;;7.83;3.13;;;;;;;23.89;100.00;63356.00;5095047;28;20222;-73
2022/05/29 07:17:23;;;;;;;6.33;2.70;;;;;;;24.12;100.00;63378.38;5095052;28;20196;-73
2022/05/29 07:19:50;;;;;;;7.60;3.20;;;;;;;23.69;100.00;63336.91;5095122;28;20239;-75
2022/05/29 07:22:18;;;;;;;10.77;3.60;;;;;;;24.15;100.00;63386.28;5095026;28;20229;-73
2022/05/29 07:24:45;;;;;;;8.50;2.93;;;;;;;23.39;100.00;63304.94;5094747;28;20276;-73
2022/05/29 07:27:15;;;;;;;11.63;2.80;;;;;;;23.70;100.00;63338.00;5094724;28;20296;-74
2022/05/29 07:29:43;;;;;;;7.50;2.63;;;;;;;23.87;100.00;63359.03;5094950;28;20214;-74
2022/05/29 07:32:12;;;;;;;9.10;3.00;;;;;;;24.36;100.00;63408.53;5094753;28;20287;-73
2022/05/29 07:34:43;;;;;;;5.23;2.70;;;;;;;23.86;100.00;63355.34;5094096;28;20257;-75
2022/05/29 07:37:14;;;;;;;7.33;2.70;;;;;;;24.26;100.00;63398.22;5095125;28;20241;-73
2022/05/29 07:39:43;;;;;;;8.63;2.97;;;;;;;24.62;100.00;63434.16;5094691;28;20227;-73
2022/05/29 07:44:57;;;;;;;11.10;3.40;;;;;;;23.86;100.00;63354.81;5096115;28;20218;-74
2022/05/29 07:47:27;;;;;;;8.37;2.53;;;;;;;24.27;100.00;63399.84;5092858;28;20203;-74
2022/05/29 07:49:55;;;;;;;11.60;2.80;;;;;;;24.58;100.00;63432.41;5094666;28;20282;-74
2022/05/29 07:52:23;;;;;;;16.37;3.37;;;;;;;24.27;100.00;63399.84;5094492;28;20287;-74
2022/05/29 07:54:54;;;;;;;8.53;3.10;;;;;;;25.13;100.00;63486.94;5080357;28;20438;-74
2022/05/29 07:57:21;;;;;;;7.33;2.60;;;;;;;25.11;100.00;63490.50;5095118;28;20255;-73
2022/05/29 07:59:48;;;;;;;8.93;3.63;;;;;;;25.48;100.00;63530.19;5094224;28;20240;-73
2022/05/29 08:02:16;;;;;;;16.57;3.00;;;;;;;25.40;100.00;63521.50;5094555;28;20280;-74
2022/05/29 08:04:45;;;;;;;13.00;3.00;;;;;;;25.14;100.00;63493.22;5094117;28;20205;-73
2022/05/29 08:07:14;;;;;;;13.43;3.43;;;;;;;25.16;100.00;63495.41;5094142;28;20205;-73
2022/05/29 08:09:43;;;;;;;11.37;3.20;;;;;;;25.46;100.00;63528.00;5094118;28;20258;-74
2022/05/29 08:12:10;;;;;;;8.97;2.90;;;;;;;25.37;100.00;63513.00;5093104;28;20678;-73
2022/05/29 08:14:41;;;;;;;8.57;2.60;;;;;;;24.93;100.00;63470.44;5094241;28;21166;-74
2022/05/29 08:17:09;;;;;;;12.47;2.63;;;;;;;24.62;100.00;63431.53;5093773;28;20685;-76
2022/05/29 08:19:36;;;;;;;16.53;4.53;;;;;;;24.71;100.00;63447.06;5093847;28;20616;-74
2022/05/29 08:22:05;;;;;;;10.67;4.30;;;;;;;24.71;100.00;63447.06;5093794;28;20209;-73
2022/05/29 08:32:57;;;;;;;8.33;3.13;;;;;;;25.04;100.00;63480.31;5093752;28;20203;-76
2022/05/29 08:35:24;;;;;;;10.13;3.50;;;;;;;24.96;100.00;63471.09;5093381;28;20200;-76
2022/05/29 08:37:52;;;;;;;16.60;3.33;;;;;;;25.30;100.00;63510.06;5093360;28;20216;-73
2022/05/29 08:40:20;;;;;;;11.33;2.60;;;;;;;25.26;100.00;63503.09;5093072;28;20221;-75
2022/05/29 08:42:47;;;;;;;6.63;2.50;;;;;;;25.21;100.00;63500.84;5093247;28;20664;-73
2022/05/29 08:45:15;;;;;;;3.80;2.50;;;;;;;25.14;100.00;63493.22;5093226;28;20199;-72
2022/05/29 08:47:45;;;;;;;9.00;2.50;;;;;;;25.13;100.00;63489.56;5091359;28;20277;-74
2022/05/29 08:50:19;;;;;;;8.73;2.87;;;;;;;25.47;100.00;63523.88;5093259;28;20283;-72
2022/05/29 08:53:03;;;;;;;10.30;2.43;;;;;;;25.20;100.00;63499.75;5093293;28;20421;-76
2022/05/29 08:55:34;;;;;;;7.63;2.80;;;;;;;25.56;100.00;63538.88;5093133;28;20200;-75
2022/05/29 08:58:29;;;;;;;9.23;2.90;;;;;;;25.73;100.00;63562.56;5092938;28;20284;-73
2022/05/29 09:01:07;;;;;;;9.70;3.83;;;;;;;25.45;100.00;63521.16;5093186;28;20292;-72
2022/05/29 09:03:47;;;;;;;16.50;4.20;;;;;;;25.55;100.00;63537.78;5092954;28;20265;-73
2022/05/29 09:06:17;;;;;;;21.30;3.90;;;;;;;25.51;100.00;63535.50;5092969;28;20201;-74
2022/05/29 09:08:52;;;;;;;12.63;3.50;;;;;;;25.89;100.00;63572.13;5092901;28;20701;-76
2022/05/29 09:11:26;;;;;;;11.63;4.20;;;;;;;26.09;100.00;63595.41;5093215;28;20198;-74
2022/05/29 09:13:56;;;;;;;11.33;3.93;;;;;;;26.16;100.00;63603.00;5093234;28;20198;-75
2022/05/29 09:16:26;;;;;;;15.03;4.23;;;;;;;25.65;100.00;63542.91;5074903;28;20610;-72
2022/05/29 09:19:08;;;;;;;8.40;3.80;;;;;;;25.99;100.00;63590.28;5092722;28;20298;-73
2022/05/29 09:21:46;;;;;;;6.33;2.53;;;;;;;25.52;100.00;63533.97;5092717;28;20212;-73
2022/05/29 09:24:27;;;;;;;11.77;3.97;;;;;;;25.66;100.00;63551.78;5092932;28;20208;-75
2022/05/29 09:26:55;;;;;;;10.47;3.43;;;;;;;25.89;100.00;63572.13;5092484;28;20241;-72
2022/05/29 09:29:22;;;;;;;5.80;2.83;;;;;;;25.36;100.00;63517.13;5092306;28;20253;-74
2022/05/29 09:31:49;;;;;;;13.93;3.90;;;;;;;25.36;100.00;63517.13;5092536;28;20647;-75
2022/05/29 09:34:16;;;;;;;8.40;3.00;;;;;;;25.50;100.00;63537.56;5092162;28;20204;-73
2022/05/29 09:36:53;;;;;;;11.73;3.60;;;;;;;25.79;100.00;63558.09;5091774;28;20234;-74
2022/05/29 09:39:27;;;;;;;9.53;3.33;;;;;;;26.14;100.00;63601.38;5092340;28;20715;-74
2022/05/29 09:42:02;;;;;;;14.57;4.33;;;;;;;26.19;100.00;63606.25;5092124;28;20205;-73
2022/05/29 09:44:30;;;;;;;10.37;4.20;;;;;;;26.05;100.00;63588.41;5093136;28;20615;-74
2022/05/29 09:49:40;;;;;;;8.50;3.70;;;;;;;26.08;100.00;63594.31;5090668;28;20205;-73
2022/05/29 09:50:03;;;;;;;11.80;3.57;;;;;;;26.35;100.00;63623.66;5092098;28;20217;-73
2022/05/29 09:52:35;;;;;;;9.27;3.23;;;;;;;25.82;100.00;63563.97;5092524;28;20304;-73
2022/05/29 09:55:08;;;;;;;14.67;4.50;;;;;;;25.87;100.00;63572.03;5092185;28;20726;-75
2022/05/29 09:57:41;;;;;;;17.40;4.73;;;;;;;25.73;100.00;63557.34;5091605;28;20203;-72
2022/05/29 10:00:14;;;;;;;13.83;3.80;;;;;;;25.28;100.00;63511.03;5091471;28;20231;-74
2022/05/29 10:02:44;;;;;;;13.53;4.83;;;;;;;25.26;100.00;63508.88;5091668;28;20200;-72
2022/05/29 10:05:23;;;;;;;12.37;3.63;;;;;;;25.58;100.00;63546.25;5092259;28;20239;-73
2022/05/29 10:07:50;;;;;;;9.00;4.40;;;;;;;25.53;100.00;63538.22;5092132;28;20227;-73
2022/05/29 10:10:33;;;;;;;7.73;3.00;;;;;;;25.53;100.00;63535.63;5092077;28;20693;-74
2022/05/29 10:13:03;;;;;;;18.33;3.80;;;;;;;25.92;100.00;63578.00;5092149;28;20211;-74
2022/05/29 10:15:39;;;;;;;11.83;4.10;;;;;;;26.11;100.00;63602.78;5092172;28;20214;-74
2022/05/29 10:18:34;;;;;;;9.57;3.47;;;;;;;26.49;100.00;63638.88;5091954;28;20284;-74
2022/05/29 10:21:16;;;;;;;12.37;5.10;;;;;;;26.04;100.00;63589.94;5091806;28;20260;-75
2022/05/29 10:23:49;;;;;;;15.60;4.63;;;;;;;26.14;100.00;63598.22;5091723;28;20249;-73
2022/05/29 10:26:36;;;;;;;13.17;4.97;;;;;;;26.18;100.00;63605.19;5091540;28;20323;-73
2022/05/29 10:29:13;;;;;;;14.43;4.03;;;;;;;25.90;100.00;63575.81;5091490;28;20289;-73
2022/05/29 10:31:43;;;;;;;14.07;6.40;;;;;;;25.78;100.00;63562.22;5091674;28;20248;-74
2022/05/29 10:34:14;;;;;;;14.53;4.57;;;;;;;25.19;100.00;63498.13;5094476;28;20206;-74
2022/05/29 10:36:42;;;;;;;17.37;4.57;;;;;;;25.13;100.00;63489.56;5097563;28;20220;-73
2022/05/29 10:39:12;;;;;;;11.70;3.77;;;;;;;25.29;100.00;63506.94;5092111;28;20276;-72
2022/05/29 10:41:41;;;;;;;14.17;3.90;;;;;;;25.14;100.00;63493.78;5091539;28;20739;-73
2022/05/29 10:44:11;;;;;;;9.20;3.77;;;;;;;25.38;100.00;63524.50;5091455;28;20259;-74
2022/05/29 10:46:41;;;;;;;16.07;4.70;;;;;;;25.31;100.00;63511.72;5075859;28;20201;-73
2022/05/29 10:49:26;;;;;;;13.57;3.97;;;;;;;25.08;100.00;63489.88;5091389;28;20246;-74
2022/05/29 10:52:09;;;;;;;14.27;4.07;;;;;;;25.06;100.00;63487.16;5091142;28;20605;-74
2022/05/29 10:54:50;;;;;;;9.17;3.37;;;;;;;25.04;100.00;63484.97;5091247;28;20303;-73
2022/05/29 10:57:32;;;;;;;14.73;4.20;;;;;;;25.20;100.00;63499.19;5091620;28;20230;-74
2022/05/29 11:00:25;;;;;;;10.60;3.83;;;;;;;25.23;100.00;63503.00;5091568;28;20583;-74
2022/05/29 11:03:19;;;;;;;13.80;4.20;;;;;;;25.39;100.00;63523.00;5091307;28;20196;-75
2022/05/29 11:06:13;;;;;;;8.63;3.90;;;;;;;26.17;100.00;63604.09;5091089;28;20283;-73
2022/05/29 11:08:53;;;;;;;11.23;3.77;;;;;;;26.91;100.00;63679.34;5091156;28;20202;-73
2022/05/29 11:11:31;;;;;;;13.13;3.90;;;;;;;26.90;100.00;63683.50;5091153;28;20278;-74
2022/05/29 11:14:28;;;;;;;11.47;3.67;;;;;;;27.52;100.00;63753.59;5090916;28;20279;-75
2022/05/29 11:17:05;;;;;;;12.80;3.83;;;;;;;27.31;100.00;63732.78;5062137;28;20261;-73
2022/05/29 11:19:56;;;;;;;12.23;4.20;;;;;;;27.51;100.00;63749.88;5080731;28;20223;-74
2022/05/29 11:22:39;;;;;;;9.60;3.80;;;;;;;27.50;100.00;63750.84;5091274;28;20254;-74
2022/05/29 11:25:19;;;;;;;17.67;3.20;;;;;;;27.78;100.00;63778.16;5091329;28;20332;-74
2022/05/29 11:28:29;;;;;;;17.10;4.40;;;;;;;27.59;100.00;63763.81;5091207;28;20281;-73
2022/05/29 11:31:19;;;;;;;13.43;3.50;;;;;;;27.82;100.00;63785.13;5091498;28;20344;-75
2022/05/29 11:33:59;;;;;;;18.07;4.27;;;;;;;27.38;100.00;63740.41;5090042;28;20208;-74
2022/05/29 11:36:41;;;;;;;10.00;3.80;;;;;;;27.44;100.00;63742.25;5077162;28;20253;-74
2022/05/29 11:39:27;;;;;;;11.87;4.30;;;;;;;27.45;100.00;63743.34;5090591;28;20293;-74
2022/05/29 11:42:02;;;;;;;18.03;4.80;;;;;;;27.48;100.00;63746.63;5091074;28;20200;-77
2022/05/29 11:44:34;;;;;;;15.73;4.10;;;;;;;27.28;100.00;63724.28;5092416;28;20200;-74
2022/05/29 11:52:54;;;;;;;11.87;4.73;;;;;;;27.56;100.00;63755.31;5094945;28;20203;-74
2022/05/29 11:55:23;;;;;;;10.40;4.53;;;;;;;27.50;100.00;63753.47;5076213;28;20215;-75
2022/05/29 11:57:58;;;;;;;14.17;5.27;;;;;;;27.01;100.00;63690.22;5094148;28;20200;-73
2022/05/29 12:00:38;;;;;;;13.10;5.30;;;;;;;26.76;100.00;63673.50;5094054;28;20230;-73
2022/05/29 12:03:22;;;;;;;14.20;4.90;;;;;;;26.96;100.00;63690.03;5094075;28;20207;-73
2022/05/29 12:05:57;;;;;;;14.13;5.03;;;;;;;26.73;100.00;63665.00;5094009;28;20288;-73
2022/05/29 12:08:31;;;;;;;12.67;5.10;;;;;;;26.33;100.00;63621.47;5094307;28;20275;-73
2022/05/29 12:11:16;;;;;;;13.97;5.80;;;;;;;26.41;100.00;63630.72;5093836;28;20634;-74
2022/05/29 12:13:53;;;;;;;16.63;6.60;;;;;;;26.57;100.00;63647.56;5093721;28;20195;-74
2022/05/29 12:16:30;;;;;;;17.40;6.17;;;;;;;26.61;100.00;63651.94;5093598;28;20215;-73